Kunszentmarton, Hungary
Current Conditions -  °F | °C
As of 12:45 AM on Tuesday 25 Nov 2014 (Local Time) from LHSN Reporting Station
Haze Haze  
Wind Chill: 32°   Ceiling: 4000
Heat Index: 32°   Visibility: 0.62mi
Dew Point: 32°   Wind: 2mph
Humidity: 100%   Direction: 80°E
Pressure: 30.39"   Gusts: NA
Location:  46.84°N, 20.29°E
Report Text: LHSN 242245Z 08002KT 1000 BR BKN040 00/00 Q1029 NOSIG RMK AMB
Loading
Personal Weather Stations






























Interactive Weather Map New forecast layout! Learn more

10-Day Weather Forecast

Advertisements
Track Severe Weather on mobile